Time;durP1;ratioP1;P1;durP2;ratioP2;P2;SDS_P1;SDS_P2;PMS_P1;PMS_P2;Temp;Humidity;BMP_temperature;BMP_pressure;BME280_temperature;BME280_humidity;BME280_pressure;Samples;Min_cycle;Max_cycle;Signal;HPM_P1;HPM_P2
2020/12/28 00:00:31;;;;;;;7.55;6.95;;;3.60;99.90;;;;;;5097806;27;20047;-84
2020/12/28 00:02:57;;;;;;;8.00;7.20;;;3.60;99.90;;;;;;5097762;27;20066;-85
2020/12/28 00:05:24;;;;;;;8.18;7.57;;;3.60;99.90;;;;;;5115033;27;20504;-83
2020/12/28 00:07:50;;;;;;;7.72;7.13;;;3.60;99.90;;;;;;5080344;27;20280;-84
2020/12/28 00:10:17;;;;;;;9.57;8.68;;;3.60;99.90;;;;;;5112116;27;20065;-85
2020/12/28 00:12:48;;;;;;;9.05;8.25;;;3.70;99.90;;;;;;5111611;28;20043;-84
2020/12/28 00:15:22;;;;;;;9.38;8.32;;;3.60;99.90;;;;;;5078420;28;20031;-84
2020/12/28 00:17:50;;;;;;;8.27;7.57;;;3.70;99.90;;;;;;5093616;28;20074;-85
2020/12/28 00:20:18;;;;;;;10.73;9.63;;;3.70;99.90;;;;;;5093272;28;20047;-87
2020/12/28 00:22:44;;;;;;;10.07;9.18;;;3.70;99.90;;;;;;5112057;28;20746;-85
2020/12/28 00:25:10;;;;;;;11.05;8.70;;;3.70;99.90;;;;;;5094236;28;20046;-85
2020/12/28 00:27:36;;;;;;;9.20;8.40;;;3.70;99.90;;;;;;5093487;28;20066;-86
2020/12/28 00:30:04;;;;;;;9.00;8.23;;;3.70;99.90;;;;;;5102593;28;20412;-85
2020/12/28 00:32:35;;;;;;;9.88;9.02;;;3.70;99.90;;;;;;5073257;28;20036;-89
2020/12/28 00:35:06;;;;;;;11.07;9.98;;;3.70;99.90;;;;;;5073862;28;20044;-86
2020/12/28 00:37:31;;;;;;;;;;;3.70;99.90;;;;;;5073718;28;20040;-87
2020/12/28 00:39:57;;;;;;;11.77;9.82;;;3.70;99.90;;;;;;5078487;28;19941;-85
2020/12/28 00:42:23;;;;;;;9.75;8.73;;;3.80;99.90;;;;;;5093769;28;20039;-85
2020/12/28 00:44:49;;;;;;;10.32;9.50;;;3.80;99.90;;;;;;5076297;28;20400;-85
2020/12/28 00:47:15;;;;;;;11.73;10.45;;;3.80;99.90;;;;;;5076991;28;20039;-84
2020/12/28 00:49:41;;;;;;;11.23;10.13;;;3.70;99.90;;;;;;5076266;28;20118;-84
2020/12/28 00:52:07;;;;;;;12.13;10.90;;;3.80;99.90;;;;;;5076714;28;20500;-84
2020/12/28 00:54:34;;;;;;;12.48;11.25;;;3.80;99.90;;;;;;5076215;28;20115;-86
2020/12/28 00:57:00;;;;;;;11.88;10.75;;;3.80;99.90;;;;;;5111080;28;20073;-84
2020/12/28 00:59:26;;;;;;;12.55;11.35;;;3.80;99.90;;;;;;5076647;28;20046;-84
2020/12/28 01:01:59;;;;;;;10.90;9.80;;;3.90;99.90;;;;;;5092744;28;20043;-84
2020/12/28 01:04:25;;;;;;;11.43;10.20;;;3.80;99.90;;;;;;5076493;28;20051;-85
2020/12/28 01:06:51;;;;;;;11.40;10.25;;;3.90;99.90;;;;;;5092419;28;20143;-84
2020/12/28 01:09:18;;;;;;;11.95;10.73;;;3.80;99.90;;;;;;5082079;28;20131;-83
2020/12/28 01:11:44;;;;;;;10.20;9.20;;;3.80;99.90;;;;;;5090328;28;20075;-83
2020/12/28 01:14:13;;;;;;;11.15;10.15;;;3.90;99.90;;;;;;5090993;28;20043;-84
2020/12/28 01:16:42;;;;;;;12.52;11.07;;;3.80;99.90;;;;;;5071891;28;20064;-84
2020/12/28 01:19:08;;;;;;;14.23;11.90;;;3.80;99.90;;;;;;5096905;28;20130;-84
2020/12/28 01:21:33;;;;;;;12.68;11.48;;;3.90;99.90;;;;;;5065167;28;20123;-86
2020/12/28 01:23:59;;;;;;;12.65;11.45;;;3.80;99.90;;;;;;5055637;28;20474;-85
2020/12/28 01:26:25;;;;;;;12.95;11.60;;;3.90;99.90;;;;;;5072633;28;20041;-85
2020/12/28 01:28:51;;;;;;;12.45;11.15;;;3.80;99.90;;;;;;5055810;28;20051;-84
2020/12/28 01:31:17;;;;;;;12.85;11.57;;;3.90;99.90;;;;;;5092731;28;20093;-85
2020/12/28 01:33:43;;;;;;;12.55;11.25;;;3.80;99.90;;;;;;5110014;28;20413;-85
2020/12/28 01:36:09;;;;;;;11.48;10.48;;;3.80;99.90;;;;;;5075527;28;20130;-85
2020/12/28 01:38:35;;;;;;;11.80;10.57;;;3.80;99.90;;;;;;5092452;28;20449;-87
2020/12/28 01:41:01;;;;;;;13.02;11.73;;;3.80;99.90;;;;;;5054603;28;20449;-85
2020/12/28 01:43:28;;;;;;;14.63;13.32;;;3.90;99.90;;;;;;5089198;28;20044;-84
2020/12/28 01:45:53;;;;;;;15.30;13.70;;;3.90;99.90;;;;;;5091772;28;20151;-84
2020/12/28 01:48:19;;;;;;;13.77;12.45;;;3.90;99.90;;;;;;5110347;28;20506;-84
2020/12/28 01:50:45;;;;;;;14.85;13.23;;;3.90;99.90;;;;;;5079935;28;20040;-85
2020/12/28 01:53:14;;;;;;;13.82;12.43;;;3.90;99.90;;;;;;5089495;28;20139;-85
2020/12/28 01:55:43;;;;;;;14.05;12.50;;;4.00;99.90;;;;;;5071061;28;20412;-86
2020/12/28 01:58:09;;;;;;;17.38;15.20;;;3.90;99.90;;;;;;5089180;28;20405;-85
2020/12/28 02:00:35;;;;;;;20.73;13.20;;;4.00;99.90;;;;;;5071465;28;20044;-84
2020/12/28 02:03:01;;;;;;;14.07;12.63;;;4.00;99.90;;;;;;5054405;28;20036;-84
2020/12/28 02:05:27;;;;;;;15.80;14.10;;;4.00;99.90;;;;;;5064893;28;20050;-83
2020/12/28 02:07:54;;;;;;;16.15;13.80;;;4.00;99.90;;;;;;5089940;28;20399;-84
2020/12/28 02:10:19;;;;;;;14.73;13.18;;;4.00;99.90;;;;;;5091605;28;20053;-84
2020/12/28 02:12:45;;;;;;;13.98;12.50;;;4.00;99.90;;;;;;5091173;28;20044;-84
2020/12/28 02:15:11;;;;;;;16.40;14.63;;;4.00;99.90;;;;;;5091914;28;20098;-84
2020/12/28 02:17:37;;;;;;;16.08;14.00;;;4.00;99.90;;;;;;5075210;28;20039;-85
2020/12/28 02:20:03;;;;;;;17.60;14.75;;;4.10;99.90;;;;;;5070084;28;20044;-84
2020/12/28 02:22:29;;;;;;;16.77;15.02;;;4.10;99.90;;;;;;5048002;28;20143;-85
2020/12/28 02:24:55;;;;;;;17.92;15.45;;;4.10;99.90;;;;;;5087911;28;20123;-84
2020/12/28 02:27:20;;;;;;;17.45;15.50;;;4.00;99.90;;;;;;5085578;28;20085;-86
2020/12/28 02:29:46;;;;;;;14.85;13.43;;;4.10;99.90;;;;;;5068026;28;20051;-85
2020/12/28 02:32:12;;;;;;;17.65;15.68;;;4.00;99.90;;;;;;5092163;28;20070;-86
2020/12/28 02:34:38;;;;;;;16.13;14.48;;;4.10;99.90;;;;;;5094519;28;20039;-84
2020/12/28 02:37:04;;;;;;;16.30;14.60;;;4.00;99.90;;;;;;5099344;28;20092;-85
2020/12/28 02:39:29;;;;;;;15.82;14.23;;;4.10;99.90;;;;;;5115613;27;20069;-86
2020/12/28 02:41:55;;;;;;;16.00;13.88;;;4.00;99.90;;;;;;5099630;27;20043;-85
2020/12/28 02:44:21;;;;;;;16.17;14.57;;;4.10;99.90;;;;;;5098382;28;20046;-84
2020/12/28 02:46:47;;;;;;;15.93;14.07;;;4.10;99.90;;;;;;5082497;28;20042;-84
2020/12/28 02:49:13;;;;;;;21.30;14.73;;;4.00;99.90;;;;;;5079785;28;20044;-84
2020/12/28 02:51:38;;;;;;;18.17;13.07;;;4.10;99.90;;;;;;5098745;28;20519;-84
2020/12/28 02:54:04;;;;;;;16.05;13.93;;;4.10;99.90;;;;;;5104516;28;20031;-86
2020/12/28 02:56:30;;;;;;;15.07;13.63;;;4.10;99.90;;;;;;5091828;28;20488;-83
2020/12/28 02:58:56;;;;;;;17.02;14.32;;;4.10;99.90;;;;;;5073914;28;20044;-85
2020/12/28 03:01:22;;;;;;;15.93;14.02;;;4.10;99.90;;;;;;5091824;28;20035;-84
2020/12/28 03:03:51;;;;;;;16.90;14.15;;;4.10;99.90;;;;;;5090880;28;20096;-83
2020/12/28 03:06:16;;;;;;;16.08;13.05;;;4.00;99.90;;;;;;5074811;28;20434;-84
2020/12/28 03:08:42;;;;;;;17.45;14.93;;;4.00;99.90;;;;;;5069885;28;20047;-85
2020/12/28 03:11:08;;;;;;;16.58;14.70;;;4.10;99.90;;;;;;5053978;28;20122;-85
2020/12/28 03:13:34;;;;;;;17.77;15.55;;;4.10;99.90;;;;;;5071056;28;20044;-84
2020/12/28 03:15:59;;;;;;;18.85;15.75;;;4.10;99.90;;;;;;5053757;28;20042;-84
2020/12/28 03:18:25;;;;;;;15.40;13.80;;;4.20;99.90;;;;;;5054410;28;20047;-83
2020/12/28 03:20:51;;;;;;;16.15;14.38;;;4.20;99.90;;;;;;5074482;28;20508;-83
2020/12/28 03:23:17;;;;;;;16.95;14.88;;;4.30;99.90;;;;;;5075639;28;20073;-86
2020/12/28 03:25:42;;;;;;;16.15;14.45;;;4.30;99.90;;;;;;5080419;28;20513;-84
2020/12/28 03:28:08;;;;;;;19.80;15.57;;;4.30;99.90;;;;;;5074168;28;20507;-84
2020/12/28 03:30:34;;;;;;;16.95;15.23;;;4.30;99.90;;;;;;5057850;28;20394;-84
2020/12/28 03:33:00;;;;;;;16.95;15.15;;;4.30;99.90;;;;;;5091878;28;20433;-84
2020/12/28 03:35:25;;;;;;;15.30;13.70;;;4.30;99.90;;;;;;5064373;28;20119;-84
2020/12/28 03:37:51;;;;;;;20.60;14.77;;;4.40;99.90;;;;;;5074291;28;20040;-84
2020/12/28 03:40:17;;;;;;;15.43;13.73;;;4.30;99.90;;;;;;5041007;28;20036;-84
2020/12/28 03:42:43;;;;;;;17.83;15.23;;;4.30;99.90;;;;;;5058158;28;20451;-83
2020/12/28 03:45:08;;;;;;;16.60;14.85;;;4.30;99.90;;;;;;5066580;28;20090;-84
2020/12/28 03:47:34;;;;;;;18.02;14.10;;;4.30;99.90;;;;;;5058017;28;20530;-83
2020/12/28 03:50:02;;;;;;;17.42;15.32;;;4.30;99.90;;;;;;5090315;28;20378;-84
2020/12/28 03:52:28;;;;;;;17.95;14.63;;;4.30;99.90;;;;;;5106306;28;20506;-85
2020/12/28 03:54:54;;;;;;;18.92;13.85;;;4.30;99.90;;;;;;5093863;28;20036;-84
2020/12/28 03:57:20;;;;;;;16.15;14.40;;;4.30;99.90;;;;;;5092534;28;20031;-85
2020/12/28 03:59:46;;;;;;;20.42;16.67;;;4.30;99.90;;;;;;5112742;28;20042;-85
2020/12/28 04:02:11;;;;;;;17.35;15.55;;;4.20;99.90;;;;;;5093922;28;20123;-83
2020/12/28 04:04:37;;;;;;;18.33;16.17;;;4.30;99.90;;;;;;5094231;28;20071;-84
2020/12/28 04:07:03;;;;;;;21.33;16.90;;;4.30;99.90;;;;;;5077029;28;20047;-84
2020/12/28 04:09:29;;;;;;;21.17;15.65;;;4.30;99.90;;;;;;5094425;28;20476;-84
2020/12/28 04:11:54;;;;;;;16.83;15.02;;;4.30;99.90;;;;;;5086330;28;20497;-84
2020/12/28 04:14:20;;;;;;;19.48;15.65;;;4.30;99.90;;;;;;5057123;28;20550;-85
2020/12/28 04:16:46;;;;;;;18.15;16.10;;;4.40;99.90;;;;;;5057374;28;20044;-84
2020/12/28 04:19:12;;;;;;;18.60;16.60;;;4.40;99.90;;;;;;5056304;28;20642;-83
2020/12/28 04:21:38;;;;;;;19.05;16.83;;;4.40;99.90;;;;;;5074171;28;20168;-84
2020/12/28 04:24:03;;;;;;;22.80;18.52;;;4.40;99.90;;;;;;5072530;28;20481;-85
2020/12/28 04:26:29;;;;;;;23.67;18.83;;;4.40;99.90;;;;;;5107797;28;20488;-85
2020/12/28 04:28:55;;;;;;;25.30;19.30;;;4.40;99.90;;;;;;5039548;28;20051;-84
2020/12/28 04:31:21;;;;;;;22.88;19.50;;;4.40;99.90;;;;;;5060946;28;20484;-84
2020/12/28 04:33:46;;;;;;;21.13;17.70;;;4.40;99.90;;;;;;5056937;28;20044;-85
2020/12/28 04:36:12;;;;;;;27.65;20.02;;;4.30;99.90;;;;;;5094397;28;20092;-84
2020/12/28 04:38:38;;;;;;;24.45;19.73;;;4.30;99.90;;;;;;5077358;28;20078;-84
2020/12/28 04:41:04;;;;;;;22.38;19.08;;;4.40;99.90;;;;;;5076278;28;20067;-84
2020/12/28 04:43:30;;;;;;;21.90;18.58;;;4.40;99.90;;;;;;5093580;28;20074;-84
2020/12/28 04:46:02;;;;;;;21.17;18.92;;;4.40;99.90;;;;;;5072335;28;20542;-85
2020/12/28 04:48:32;;;;;;;20.98;18.70;;;4.30;99.90;;;;;;5090580;28;20065;-85
2020/12/28 04:50:59;;;;;;;20.30;18.27;;;4.40;99.90;;;;;;5110830;28;20046;-85
2020/12/28 04:53:26;;;;;;;24.15;18.75;;;4.40;99.90;;;;;;5093698;28;20112;-85
2020/12/28 04:55:52;;;;;;;20.00;17.90;;;4.40;99.90;;;;;;5093178;28;20555;-88
2020/12/28 04:58:18;;;;;;;19.30;17.27;;;4.40;99.90;;;;;;5080210;28;20050;-85
2020/12/28 05:00:45;;;;;;;21.40;18.08;;;4.40;99.90;;;;;;5039497;28;20044;-85
2020/12/28 05:03:11;;;;;;;23.45;17.73;;;4.40;99.90;;;;;;5056088;28;20071;-84
2020/12/28 05:05:45;;;;;;;21.48;18.15;;;4.40;99.90;;;;;;5072904;28;20054;-85
2020/12/28 05:08:11;;;;;;;18.75;16.50;;;4.40;99.90;;;;;;5090444;28;20075;-86
2020/12/28 05:10:37;;;;;;;21.73;17.67;;;4.40;99.90;;;;;;5073084;28;20062;-85
2020/12/28 05:13:10;;;;;;;18.48;16.65;;;4.40;99.90;;;;;;5072222;28;20047;-84
2020/12/28 05:15:48;;;;;;;18.40;16.45;;;4.40;99.90;;;;;;5103566;28;20115;-84
2020/12/28 05:18:15;;;;;;;19.45;16.30;;;4.40;99.90;;;;;;5092557;28;20044;-84
2020/12/28 05:20:44;;;;;;;23.17;19.15;;;4.30;99.90;;;;;;5110776;28;20124;-84
2020/12/28 05:23:10;;;;;;;21.15;17.27;;;4.40;99.90;;;;;;5110344;28;20065;-84
2020/12/28 05:25:37;;;;;;;19.25;16.88;;;4.30;99.90;;;;;;5079303;28;20055;-84
2020/12/28 05:28:04;;;;;;;18.88;16.52;;;4.30;99.90;;;;;;5071511;28;20044;-86
2020/12/28 05:30:33;;;;;;;21.88;18.35;;;4.30;99.90;;;;;;5071940;28;20059;-84
2020/12/28 05:33:04;;;;;;;19.87;17.03;;;4.30;99.90;;;;;;5071456;28;20047;-87
2020/12/28 05:35:32;;;;;;;19.25;16.77;;;4.30;99.90;;;;;;5064500;28;20036;-85
2020/12/28 05:38:00;;;;;;;18.83;16.83;;;4.30;99.90;;;;;;5074918;28;20043;-87
2020/12/28 05:40:27;;;;;;;21.67;16.83;;;4.30;99.90;;;;;;5092018;28;20104;-83
2020/12/28 05:42:55;;;;;;;18.55;16.08;;;4.40;99.90;;;;;;5091999;28;20103;-84
2020/12/28 05:45:21;;;;;;;21.45;17.20;;;4.40;99.90;;;;;;5085266;28;20035;-83
2020/12/28 05:47:55;;;;;;;21.58;16.20;;;4.40;99.90;;;;;;5089900;28;20044;-83
2020/12/28 05:50:23;;;;;;;17.25;15.35;;;4.40;99.90;;;;;;5070525;28;20040;-83
2020/12/28 05:52:54;;;;;;;20.00;16.73;;;4.40;99.90;;;;;;5071332;28;20493;-84
2020/12/28 05:55:22;;;;;;;18.95;16.88;;;4.40;99.90;;;;;;5072785;28;20040;-85
2020/12/28 05:57:49;;;;;;;18.90;16.67;;;4.40;99.90;;;;;;5109930;28;20089;-85
2020/12/28 06:00:16;;;;;;;23.55;18.20;;;4.40;99.90;;;;;;5090866;28;20403;-83
2020/12/28 06:02:42;;;;;;;20.58;18.00;;;4.40;99.90;;;;;;5110351;28;20044;-84
2020/12/28 06:05:10;;;;;;;22.80;19.27;;;4.40;99.90;;;;;;5109315;28;20625;-84
2020/12/28 06:07:36;;;;;;;19.33;16.73;;;4.50;99.90;;;;;;5091197;28;20083;-84
2020/12/28 06:10:03;;;;;;;20.95;17.17;;;4.50;99.90;;;;;;5071301;28;20044;-86
2020/12/28 06:12:29;;;;;;;20.27;18.08;;;4.50;99.90;;;;;;5072116;28;20101;-86
2020/12/28 06:14:55;;;;;;;18.25;16.38;;;4.50;99.90;;;;;;5054848;28;20044;-84
2020/12/28 06:17:32;;;;;;;19.90;17.30;;;4.40;99.90;;;;;;5054182;28;20040;-85
2020/12/28 06:20:01;;;;;;;19.15;17.15;;;4.50;99.90;;;;;;5089879;28;20031;-84
2020/12/28 06:22:27;;;;;;;21.35;18.30;;;4.50;99.90;;;;;;5074436;28;20046;-85
2020/12/28 06:24:59;;;;;;;22.42;17.95;;;4.40;99.90;;;;;;5110164;28;20089;-86
2020/12/28 06:27:31;;;;;;;28.70;18.08;;;4.50;99.90;;;;;;5109492;28;20032;-85
2020/12/28 06:30:12;;;;;;;20.42;17.83;;;4.50;99.90;;;;;;5088261;28;20113;-84
2020/12/28 06:32:39;;;;;;;20.70;18.38;;;4.50;99.90;;;;;;5088590;28;20481;-84
2020/12/28 06:35:07;;;;;;;22.33;19.30;;;4.40;99.90;;;;;;5078581;28;20043;-86
2020/12/28 06:37:39;;;;;;;19.85;17.63;;;4.40;99.90;;;;;;5080421;28;20410;-84
2020/12/28 06:40:07;;;;;;;25.50;18.35;;;4.40;99.90;;;;;;5087333;28;20553;-85
2020/12/28 06:42:33;;;;;;;22.85;19.30;;;4.40;99.90;;;;;;5088138;28;20055;-84
2020/12/28 06:45:11;;;;;;;22.45;18.55;;;4.50;99.90;;;;;;5088025;28;20051;-83
2020/12/28 06:47:37;;;;;;;28.02;18.73;;;4.40;99.90;;;;;;5078125;28;20044;-83
2020/12/28 06:50:03;;;;;;;24.23;18.85;;;4.40;99.90;;;;;;5068713;28;20067;-87
2020/12/28 06:52:29;;;;;;;23.60;18.35;;;4.50;99.90;;;;;;5067580;28;20489;-85
2020/12/28 06:54:54;;;;;;;19.88;17.75;;;4.40;99.90;;;;;;5071033;28;20036;-85
2020/12/28 06:57:23;;;;;;;20.67;18.10;;;4.30;99.90;;;;;;5073506;28;20045;-85
2020/12/28 06:59:49;;;;;;;20.70;18.13;;;4.40;99.90;;;;;;5078101;28;20047;-85
2020/12/28 07:02:17;;;;;;;24.67;20.50;;;4.30;99.90;;;;;;5111260;28;20050;-87
2020/12/28 07:04:43;;;;;;;28.05;20.77;;;4.30;99.90;;;;;;5095993;28;20148;-85
2020/12/28 07:07:09;;;;;;;27.58;21.10;;;4.30;99.90;;;;;;5108139;28;20424;-85
2020/12/28 07:09:35;;;;;;;24.92;20.63;;;4.30;99.90;;;;;;5112685;28;20044;-85
2020/12/28 07:12:08;;;;;;;28.63;21.77;;;4.20;99.90;;;;;;5096081;28;20104;-85
2020/12/28 07:14:34;;;;;;;24.90;20.30;;;4.10;99.90;;;;;;5092588;28;20610;-85
2020/12/28 07:17:00;;;;;;;28.95;21.10;;;4.00;99.90;;;;;;5077611;28;20068;-86
2020/12/28 07:19:28;;;;;;;30.02;21.80;;;4.00;99.90;;;;;;5071168;28;20064;-84
2020/12/28 07:21:54;;;;;;;27.08;20.83;;;3.90;99.90;;;;;;5071941;28;20131;-85
2020/12/28 07:24:21;;;;;;;33.17;21.98;;;3.80;99.90;;;;;;5054148;28;20135;-86
2020/12/28 07:26:49;;;;;;;28.58;21.38;;;3.80;99.90;;;;;;5071723;28;20052;-84
2020/12/28 07:29:19;;;;;;;30.00;21.98;;;3.70;99.90;;;;;;5058775;28;20305;-84
2020/12/28 07:31:46;;;;;;;31.02;21.38;;;3.60;99.90;;;;;;5108559;28;20044;-85
2020/12/28 07:34:19;;;;;;;42.33;23.70;;;3.50;99.90;;;;;;5077732;28;20591;-84
2020/12/28 07:36:53;;;;;;;34.35;22.50;;;3.50;99.90;;;;;;5113285;28;20046;-84
2020/12/28 07:39:19;;;;;;;39.90;23.90;;;3.50;99.90;;;;;;5094456;28;20039;-85
2020/12/28 07:41:45;;;;;;;40.80;24.48;;;3.50;99.90;;;;;;5069262;27;20058;-85
2020/12/28 07:44:15;;;;;;;45.20;26.40;;;3.60;99.90;;;;;;5119144;27;20097;-87
2020/12/28 07:46:44;;;;;;;46.00;25.85;;;3.50;99.90;;;;;;5121535;27;20515;-85
2020/12/28 07:49:19;;;;;;;44.30;25.33;;;3.60;99.90;;;;;;5124609;27;20044;-88
2020/12/28 07:52:00;;;;;;;53.78;27.80;;;3.60;99.90;;;;;;5113371;28;20419;-86
2020/12/28 07:54:31;;;;;;;53.00;26.92;;;3.70;99.90;;;;;;5112504;28;20113;-85
2020/12/28 07:57:01;;;;;;;55.10;28.48;;;3.60;99.90;;;;;;5063288;28;20036;-85
2020/12/28 07:59:38;;;;;;;46.03;27.02;;;3.70;99.90;;;;;;5090567;28;20048;-85
2020/12/28 08:02:29;;;;;;;49.63;26.48;;;3.70;99.90;;;;;;5074279;28;20111;-85
2020/12/28 08:04:57;;;;;;;48.53;25.40;;;3.70;99.90;;;;;;5092428;28;20126;-84
2020/12/28 08:07:23;;;;;;;52.45;25.58;;;3.70;99.90;;;;;;5093854;28;20052;-84
2020/12/28 08:09:56;;;;;;;41.88;26.23;;;3.70;99.90;;;;;;5110804;28;20062;-85
2020/12/28 08:12:22;;;;;;;42.08;23.23;;;3.60;99.90;;;;;;5093562;28;20047;-85
2020/12/28 08:14:54;;;;;;;41.58;23.05;;;3.50;99.90;;;;;;5112400;28;20481;-84
2020/12/28 08:17:38;;;;;;;45.58;25.75;;;3.40;99.90;;;;;;5097579;28;20044;-84
2020/12/28 08:20:12;;;;;;;71.63;33.60;;;3.40;99.90;;;;;;5057434;28;20089;-84
2020/12/28 08:22:42;;;;;;;63.60;32.45;;;3.40;99.90;;;;;;5073861;28;20152;-84
2020/12/28 08:25:11;;;;;;;58.77;29.10;;;3.30;99.90;;;;;;5073721;28;20039;-84
2020/12/28 08:27:37;;;;;;;65.80;29.17;;;3.30;99.90;;;;;;5056838;28;20052;-85
2020/12/28 08:30:08;;;;;;;70.63;30.63;;;3.30;99.90;;;;;;5073582;28;20490;-85
2020/12/28 08:32:36;;;;;;;77.38;31.33;;;3.20;99.90;;;;;;5090517;28;20043;-84
2020/12/28 08:35:03;;;;;;;57.75;29.25;;;3.20;99.90;;;;;;5060310;28;20501;-84
2020/12/28 08:37:29;;;;;;;66.00;29.80;;;3.20;99.90;;;;;;5076227;28;20569;-85
2020/12/28 08:39:55;;;;;;;93.00;34.08;;;3.20;99.90;;;;;;5094200;28;20073;-84
2020/12/28 08:42:34;;;;;;;78.20;30.67;;;3.20;99.90;;;;;;5081668;28;20048;-85
2020/12/28 08:45:03;;;;;;;79.93;31.50;;;3.20;99.90;;;;;;5075005;28;20039;-85
2020/12/28 08:47:29;;;;;;;93.43;34.28;;;3.20;99.90;;;;;;5098597;28;20047;-85
2020/12/28 08:49:56;;;;;;;92.50;34.22;;;3.30;99.90;;;;;;5063992;28;20071;-88
2020/12/28 08:52:23;;;;;;;79.70;32.83;;;3.40;99.90;;;;;;5102523;27;20400;-86
2020/12/28 08:54:56;;;;;;;95.82;36.13;;;3.50;99.90;;;;;;5097921;27;20476;-87
2020/12/28 08:57:23;;;;;;;85.20;36.10;;;3.50;99.90;;;;;;5132458;27;20038;-86
2020/12/28 08:59:51;;;;;;;85.85;36.25;;;3.60;99.90;;;;;;5114238;27;20058;-87
2020/12/28 09:02:19;;;;;;;69.53;33.78;;;3.60;99.90;;;;;;5077372;28;20047;-89
2020/12/28 09:04:45;;;;;;;72.15;33.25;;;3.70;99.90;;;;;;5094191;28;20039;-87
2020/12/28 09:07:13;;;;;;;64.88;32.75;;;3.70;99.90;;;;;;5094567;28;20031;-86
2020/12/28 09:09:40;;;;;;;73.43;35.97;;;3.80;99.90;;;;;;5078747;28;20044;-87
2020/12/28 09:12:07;;;;;;;77.25;38.05;;;3.80;99.90;;;;;;5057420;28;20044;-87
2020/12/28 09:14:32;;;;;;;69.40;34.55;;;3.90;99.90;;;;;;5056803;28;20141;-89
2020/12/28 09:17:01;;;;;;;75.07;34.35;;;3.90;99.90;;;;;;5073753;28;20603;-91
2020/12/28 09:19:27;;;;;;;67.45;32.47;;;4.00;99.90;;;;;;5073334;28;20051;-86
2020/12/28 09:21:53;;;;;;;79.88;36.38;;;4.00;99.90;;;;;;5056976;28;20048;-87
2020/12/28 09:24:19;;;;;;;65.45;32.95;;;4.10;99.90;;;;;;5050573;28;20451;-89
2020/12/28 09:26:45;;;;;;;73.47;35.58;;;4.10;99.90;;;;;;5073255;28;20545;-87
2020/12/28 09:29:10;;;;;;;72.43;34.70;;;4.10;99.90;;;;;;5090479;28;20044;-88
2020/12/28 09:31:36;;;;;;;72.80;35.45;;;4.10;99.90;;;;;;5055346;28;20163;-86
2020/12/28 09:34:02;;;;;;;67.10;33.80;;;4.10;99.90;;;;;;5057519;27;20497;-87
2020/12/28 09:36:28;;;;;;;69.22;35.65;;;4.30;99.90;;;;;;5088796;27;20031;-88
2020/12/28 09:38:54;;;;;;;50.95;29.52;;;4.30;99.90;;;;;;5094649;27;20045;-89
2020/12/28 09:41:20;;;;;;;67.55;33.20;;;4.30;99.90;;;;;;5103490;27;20135;-89
2020/12/28 09:43:46;;;;;;;49.85;30.00;;;4.40;99.90;;;;;;5066908;27;20047;-88
2020/12/28 09:46:12;;;;;;;40.80;28.52;;;4.40;99.90;;;;;;5097729;27;20092;-88
2020/12/28 09:48:37;;;;;;;37.17;24.92;;;4.40;99.90;;;;;;5114572;27;20520;-89
2020/12/28 09:51:05;;;;;;;41.33;25.88;;;4.40;99.90;;;;;;5098308;27;20047;-88
2020/12/28 09:53:33;;;;;;;36.38;24.23;;;4.40;99.90;;;;;;5093439;28;20043;-89
2020/12/28 09:55:58;;;;;;;34.65;20.98;;;4.40;99.90;;;;;;5057158;28;20096;-88
2020/12/28 09:58:24;;;;;;;36.40;23.60;;;4.30;99.90;;;;;;5057302;28;20075;-88
2020/12/28 10:00:50;;;;;;;37.55;24.42;;;4.30;99.90;;;;;;5057403;28;20058;-87
2020/12/28 10:03:16;;;;;;;34.50;22.27;;;4.30;99.90;;;;;;5070776;28;20046;-86
2020/12/28 10:05:42;;;;;;;33.92;22.42;;;4.40;99.90;;;;;;5072878;28;20350;-87
2020/12/28 10:08:11;;;;;;;34.72;23.17;;;4.50;99.90;;;;;;5058370;28;20476;-87
2020/12/28 10:10:36;;;;;;;32.63;20.30;;;4.60;99.90;;;;;;5091275;28;20047;-87
2020/12/28 10:13:02;;;;;;;30.08;21.17;;;4.60;99.90;;;;;;5084582;28;20093;-86
2020/12/28 10:15:28;;;;;;;33.30;21.55;;;4.60;99.90;;;;;;5090453;28;20048;-87
2020/12/28 10:18:32;;;;;;;36.60;21.05;;;4.60;99.90;;;;;;5085115;28;20416;-90
2020/12/28 10:20:58;;;;;;;29.60;21.65;;;4.70;99.90;;;;;;5083571;28;20044;-86
2020/12/28 10:23:27;;;;;;;25.58;20.63;;;4.70;99.90;;;;;;5078093;28;20115;-91
2020/12/28 10:25:53;;;;;;;30.35;21.48;;;4.70;99.90;;;;;;5091068;28;20118;-88
2020/12/28 10:28:19;;;;;;;24.08;19.67;;;4.80;99.90;;;;;;5058760;28;20167;-86
2020/12/28 10:30:44;;;;;;;26.95;17.42;;;4.70;99.90;;;;;;5092892;28;20602;-88
2020/12/28 10:33:10;;;;;;;20.48;15.98;;;4.80;99.90;;;;;;5064169;27;20039;-87
2020/12/28 10:35:36;;;;;;;15.73;11.77;;;4.70;99.90;;;;;;5069189;28;20074;-87
2020/12/28 10:38:02;;;;;;;11.55;8.80;;;4.80;99.90;;;;;;5088183;27;20084;-88
2020/12/28 10:40:28;;;;;;;13.20;11.55;;;4.80;99.90;;;;;;5100217;27;20042;-91
2020/12/28 10:42:54;;;;;;;13.13;11.00;;;4.70;99.90;;;;;;5059305;28;20560;-87
2020/12/28 10:45:20;;;;;;;11.43;9.57;;;4.70;99.90;;;;;;5069695;28;20115;-86
2020/12/28 10:47:46;;;;;;;12.80;8.93;;;4.80;99.90;;;;;;5072435;28;20040;-89
2020/12/28 10:50:11;;;;;;;17.77;11.13;;;4.80;99.90;;;;;;5057658;28;20071;-87
2020/12/28 10:52:37;;;;;;;15.00;11.70;;;4.60;99.90;;;;;;5085107;28;20097;-88
2020/12/28 10:55:03;;;;;;;19.83;12.25;;;4.70;99.90;;;;;;5067529;28;20047;-87
2020/12/28 10:57:29;;;;;;;15.52;12.60;;;4.70;99.90;;;;;;5068915;28;20040;-89
2020/12/28 10:59:55;;;;;;;17.52;12.23;;;4.70;99.90;;;;;;5056606;28;20127;-87
2020/12/28 11:02:20;;;;;;;14.85;12.65;;;4.80;99.90;;;;;;5081709;28;20147;-88
2020/12/28 11:04:46;;;;;;;20.05;14.20;;;4.80;99.90;;;;;;5102746;28;20098;-88
2020/12/28 11:07:12;;;;;;;15.75;13.45;;;4.80;99.90;;;;;;5068164;28;20044;-87
2020/12/28 11:09:38;;;;;;;13.18;11.43;;;4.90;99.90;;;;;;5067976;28;20420;-88
2020/12/28 11:12:04;;;;;;;13.55;11.45;;;4.90;99.90;;;;;;5041990;28;20120;-87
2020/12/28 11:14:30;;;;;;;13.50;10.48;;;4.90;99.90;;;;;;5081181;28;20044;-90
2020/12/28 11:16:56;;;;;;;18.48;10.60;;;5.00;99.90;;;;;;5072094;28;20044;-87
2020/12/28 11:19:21;;;;;;;11.80;10.27;;;5.00;99.90;;;;;;5082937;28;20040;-87
2020/12/28 11:21:47;;;;;;;11.13;9.18;;;5.00;99.90;;;;;;5072344;28;20052;-87
2020/12/28 11:24:13;;;;;;;7.82;7.03;;;5.00;99.90;;;;;;5076991;28;20043;-88
2020/12/28 11:26:39;;;;;;;7.38;6.50;;;4.90;99.80;;;;;;5057328;28;20055;-88
2020/12/28 11:29:05;;;;;;;9.10;7.32;;;4.90;99.70;;;;;;5059302;28;20040;-87
2020/12/28 11:31:32;;;;;;;11.27;7.40;;;4.90;99.90;;;;;;5102661;28;20048;-89
2020/12/28 11:33:58;;;;;;;10.10;7.07;;;4.90;99.70;;;;;;5099645;28;20044;-87
2020/12/28 11:36:24;;;;;;;9.88;7.30;;;4.90;99.50;;;;;;5097790;28;20043;-87
2020/12/28 11:38:50;;;;;;;7.68;6.80;;;4.90;99.30;;;;;;5092669;28;20096;-87
2020/12/28 11:41:16;;;;;;;12.13;8.20;;;4.90;99.20;;;;;;5032038;28;20048;-87
2020/12/28 11:43:43;;;;;;;9.45;7.75;;;5.00;99.40;;;;;;5062804;28;20374;-88
2020/12/28 11:46:09;;;;;;;10.65;7.90;;;5.00;99.20;;;;;;5059479;28;20100;-89
2020/12/28 11:48:36;;;;;;;12.15;7.93;;;5.00;99.60;;;;;;5091291;28;20048;-89
2020/12/28 11:51:04;;;;;;;13.45;9.57;;;5.00;99.40;;;;;;5092608;28;20067;-86
2020/12/28 11:53:31;;;;;;;10.27;7.32;;;5.10;99.90;;;;;;5103578;28;20035;-87
2020/12/28 11:56:03;;;;;;;13.57;8.45;;;5.10;99.70;;;;;;5081099;27;20048;-86
2020/12/28 11:58:31;;;;;;;12.10;8.68;;;5.20;99.30;;;;;;5095696;28;20461;-85
2020/12/28 12:01:01;;;;;;;12.70;8.95;;;5.10;99.90;;;;;;5115861;27;20137;-87
2020/12/28 12:03:29;;;;;;;18.53;11.73;;;5.10;99.50;;;;;;5115907;27;20111;-85
2020/12/28 12:05:59;;;;;;;29.50;20.25;;;5.10;99.70;;;;;;5084101;28;20036;-86
2020/12/28 12:08:26;;;;;;;36.58;19.20;;;5.10;99.60;;;;;;5066337;27;20082;-86
2020/12/28 12:10:52;;;;;;;37.15;22.42;;;5.00;99.30;;;;;;5083294;27;20224;-86
2020/12/28 12:13:19;;;;;;;22.08;14.40;;;5.10;99.80;;;;;;5071710;28;20525;-89
2020/12/28 12:15:47;;;;;;;16.17;8.98;;;5.10;99.30;;;;;;5103797;28;20829;-91
2020/12/28 12:18:13;;;;;;;13.52;9.07;;;5.10;99.40;;;;;;5076744;28;20055;-89
2020/12/28 12:20:39;;;;;;;14.30;9.23;;;5.00;99.20;;;;;;5063117;28;21668;-84
2020/12/28 12:23:06;;;;;;;15.88;9.13;;;5.10;99.30;;;;;;5080402;28;20044;-86
2020/12/28 12:25:33;;;;;;;14.38;9.40;;;5.00;99.40;;;;;;5077201;28;20036;-86
2020/12/28 12:27:59;;;;;;;13.60;8.40;;;5.20;99.90;;;;;;5078949;27;20051;-85
2020/12/28 12:30:25;;;;;;;13.32;8.90;;;5.30;99.90;;;;;;5115053;27;20075;-87
2020/12/28 12:32:51;;;;;;;17.83;8.77;;;5.40;99.90;;;;;;5118627;27;20043;-87
2020/12/28 12:35:18;;;;;;;14.20;8.60;;;5.40;99.00;;;;;;5086530;27;20043;-86
2020/12/28 12:37:43;;;;;;;14.25;8.00;;;5.40;99.60;;;;;;5127376;27;20047;-84